| Date | Time | Temp. (oF) | Dew Point (oF) | Rel. Hum. (%) | Press. (in.) | Wind Dir. | Wind Speed (mph) | Hourly Rainfall (in.) |
|
|---|---|---|---|---|---|---|---|---|---|
| 1 | 02/23 | 00:00 | 18 | 16 | 93 | 30.13 | NW | 4 | 0.00 |
| 2 | 02/22 | 23:00 | 19 | 17 | 92 | 30.14 | NW | 3 | 0.03 |
| 3 | 02/22 | 22:00 | 18 | 16 | 92 | 30.16 | NNW | 1 | 0.03 |
| 4 | 02/22 | 21:00 | 19 | 16 | 90 | 30.17 | NNW | 2 | 0.03 |
| 5 | 02/22 | 20:00 | 19 | 16 | 91 | 30.18 | NNW | 3 | 0.01 |
| 6 | 02/22 | 19:00 | 19 | 17 | 92 | 30.21 | NNE | 6 | 0.00 |
| 7 | 02/22 | 18:00 | 19 | 16 | 91 | 30.20 | NNE | 5 | 0.00 |
| 8 | 02/22 | 17:00 | 19 | 16 | 91 | 30.23 | ENE | 8 | 0.00 |
| 9 | 02/22 | 16:00 | 20 | 16 | 87 | 30.25 | NE | 3 | 0.00 |
| 10 | 02/22 | 15:00 | 22 | 18 | 85 | 30.28 | E | 7 | 0.08 |
| 11 | 02/22 | 14:00 | 22 | 17 | 83 | 30.31 | NE | 4 | 0.00 |
| 12 | 02/22 | 13:00 | 22 | 15 | 77 | 30.35 | SE | 5 | 0.00 |
| 13 | 02/22 | 12:00 | 23 | 8 | 53 | 30.40 | E | 2 | 0.00 |
| 14 | 02/22 | 11:00 | 23 | 9 | 55 | 30.44 | S | 8 | 0.00 |
| 15 | 02/22 | 10:00 | 22 | 10 | 60 | 30.45 | E | 4 | 0.00 |
| 16 | 02/22 | 09:00 | 21 | 10 | 62 | 30.45 | E | 7 | 0.00 |
| 17 | 02/22 | 08:00 | 20 | 9 | 63 | 30.46 | ENE | 7 | 0.00 |
| 18 | 02/22 | 07:00 | 19 | 8 | 63 | 30.45 | E | 3 | 0.00 |
| 19 | 02/22 | 06:00 | 18 | 7 | 63 | 30.45 | NE | 3 | 0.00 |
| 20 | 02/22 | 05:00 | 19 | 5 | 55 | 30.47 | NE | 3 | 0.00 |
| 21 | 02/22 | 04:00 | 20 | 6 | 56 | 30.47 | NNW | 3 | 0.00 |
| 22 | 02/22 | 03:00 | 20 | 5 | 53 | 30.48 | N | 2 | 0.00 |
| 23 | 02/22 | 02:00 | 21 | 4 | 48 | 30.47 | NNW | 1 | 0.00 |
| 24 | 02/22 | 01:00 | 22 | 4 | 46 | 30.46 | N | 5 | 0.00 |